Time;durP1;ratioP1;P1;durP2;ratioP2;P2;SDS_P1;SDS_P2;PMS_P1;PMS_P2;Temp;Humidity;BMP_temperature;BMP_pressure;BME280_temperature;BME280_humidity;BME280_pressure;Samples;Min_cycle;Max_cycle;Signal;HPM_P1;HPM_P2
2022/04/05 00:01:31;;;;;;;9.55;1.58;;;;;;;;;;5070695;28;20020;-60
2022/04/05 00:03:57;;;;;;;6.32;1.80;;;;;;;;;;5067719;28;20025;-60
2022/04/05 00:06:23;;;;;;;7.05;1.88;;;;;;;;;;5054034;28;20040;-63
2022/04/05 00:08:49;;;;;;;16.73;1.98;;;;;;;;;;5059609;28;20081;-62
2022/04/05 00:11:15;;;;;;;5.55;1.60;;;;;;;;;;5057286;28;20029;-60
2022/04/05 00:13:41;;;;;;;32.08;2.70;;;;;;;;;;5059381;28;20171;-61
2022/04/05 00:16:07;;;;;;;20.20;2.33;;;;;;;;;;5077317;28;20103;-61
2022/04/05 00:18:33;;;;;;;17.02;2.17;;;;;;;;;;5069292;28;20029;-64
2022/04/05 00:20:59;;;;;;;18.73;2.15;;;;;;;;;;5065651;28;20134;-62
2022/04/05 00:23:25;;;;;;;12.30;2.25;;;;;;;;;;5072519;28;20087;-62
2022/04/05 00:25:51;;;;;;;8.85;2.10;;;;;;;;;;5056387;28;20045;-64
2022/04/05 00:28:17;;;;;;;13.30;2.08;;;;;;;;;;5043452;28;20029;-60
2022/04/05 00:30:47;;;;;;;11.40;2.28;;;;;;;;;;5075299;28;20029;-59
2022/04/05 00:33:13;;;;;;;11.02;1.98;;;;;;;;;;5070277;28;20020;-63
2022/04/05 00:35:39;;;;;;;7.53;1.90;;;;;;;;;;5057417;28;20036;-60
2022/04/05 00:38:06;;;;;;;8.55;1.60;;;;;;;;;;5065595;28;20738;-61
2022/04/05 00:40:32;;;;;;;7.03;1.88;;;;;;;;;;5068845;28;20052;-59
2022/04/05 00:43:00;;;;;;;7.93;2.10;;;;;;;;;;5053465;28;20032;-59
2022/04/05 00:45:26;;;;;;;13.77;1.90;;;;;;;;;;5060560;28;20040;-61
2022/04/05 00:47:54;;;;;;;10.98;2.40;;;;;;;;;;5055379;28;20372;-61
2022/04/05 00:50:21;;;;;;;8.13;1.63;;;;;;;;;;5071356;28;20024;-62
2022/04/05 00:52:47;;;;;;;15.48;2.10;;;;;;;;;;5070087;28;20033;-59
2022/04/05 00:55:16;;;;;;;7.28;1.80;;;;;;;;;;5061941;28;20039;-58
2022/04/05 00:57:43;;;;;;;3.80;1.55;;;;;;;;;;5072868;28;20028;-62
2022/04/05 01:00:09;;;;;;;5.18;1.70;;;;;;;;;;5066989;28;20464;-60
2022/04/05 01:02:37;;;;;;;5.22;1.33;;;;;;;;;;5065013;28;20064;-62
2022/04/05 01:05:03;;;;;;;7.10;1.38;;;;;;;;;;5054408;28;20037;-63
2022/04/05 01:07:30;;;;;;;8.50;1.60;;;;;;;;;;5072827;28;20483;-59
2022/04/05 01:09:57;;;;;;;6.47;1.63;;;;;;;;;;5072724;28;20059;-59
2022/04/05 01:12:23;;;;;;;5.68;1.90;;;;;;;;;;5061793;28;20103;-59
2022/04/05 01:14:50;;;;;;;3.65;1.23;;;;;;;;;;5075623;28;20457;-63
2022/04/05 01:17:16;;;;;;;7.47;1.70;;;;;;;;;;5054713;28;20452;-63
2022/04/05 01:19:43;;;;;;;8.48;1.50;;;;;;;;;;5072597;28;20042;-59
2022/04/05 01:22:09;;;;;;;9.90;1.23;;;;;;;;;;5066964;28;20032;-64
2022/04/05 01:24:35;;;;;;;10.15;1.60;;;;;;;;;;5033921;28;20442;-60
2022/04/05 01:27:12;;;;;;;11.38;2.00;;;;;;;;;;5034809;28;20441;-65
2022/04/05 01:29:38;;;;;;;5.82;1.58;;;;;;;;;;5048310;28;20877;-59
2022/04/05 01:32:06;;;;;;;6.97;1.50;;;;;;;;;;5050290;28;20116;-63
2022/04/05 01:34:34;;;;;;;4.88;1.38;;;;;;;;;;5049056;28;20040;-63
2022/04/05 01:37:01;;;;;;;6.70;1.40;;;;;;;;;;5052240;28;20028;-59
2022/04/05 01:39:28;;;;;;;7.95;1.60;;;;;;;;;;5052133;28;20025;-64
2022/04/05 01:41:56;;;;;;;4.65;1.40;;;;;;;;;;5034339;28;20021;-60
2022/04/05 01:44:22;;;;;;;3.25;1.10;;;;;;;;;;5051747;28;20108;-64
2022/04/05 01:46:48;;;;;;;8.75;1.55;;;;;;;;;;5052444;28;20033;-61
2022/04/05 01:49:14;;;;;;;13.10;1.88;;;;;;;;;;5052146;28;20103;-63
2022/04/05 01:51:41;;;;;;;7.25;1.50;;;;;;;;;;5034087;28;20124;-59
2022/04/05 01:54:08;;;;;;;11.23;1.67;;;;;;;;;;5052054;28;20025;-60
2022/04/05 01:56:40;;;;;;;12.70;1.50;;;;;;;;;;5051931;28;20625;-62
2022/04/05 01:59:06;;;;;;;10.20;1.23;;;;;;;;;;5051695;28;20106;-63
2022/04/05 02:01:32;;;;;;;8.63;1.20;;;;;;;;;;5051732;28;20055;-61
2022/04/05 02:03:58;;;;;;;11.75;1.88;;;;;;;;;;5050943;28;20099;-61
2022/04/05 02:06:24;;;;;;;5.38;1.10;;;;;;;;;;5051687;28;20437;-62
2022/04/05 02:08:51;;;;;;;5.68;1.17;;;;;;;;;;5051955;28;20029;-65
2022/04/05 02:11:17;;;;;;;8.73;1.08;;;;;;;;;;5039976;28;20105;-64
2022/04/05 02:13:43;;;;;;;6.18;1.02;;;;;;;;;;5052309;28;20060;-64
2022/04/05 02:16:09;;;;;;;4.43;0.90;;;;;;;;;;5049096;28;20036;-66
2022/04/05 02:18:38;;;;;;;11.70;1.30;;;;;;;;;;5051516;28;20029;-67
2022/04/05 02:21:05;;;;;;;5.07;1.20;;;;;;;;;;5051537;28;20085;-65
2022/04/05 02:23:31;;;;;;;3.10;1.13;;;;;;;;;;5051419;28;20132;-65
2022/04/05 02:25:57;;;;;;;9.00;1.33;;;;;;;;;;5060685;28;20033;-63
2022/04/05 02:28:23;;;;;;;7.75;1.10;;;;;;;;;;5070757;28;20060;-61
2022/04/05 02:30:49;;;;;;;4.90;1.08;;;;;;;;;;5076420;28;20032;-59
2022/04/05 02:33:15;;;;;;;2.00;1.10;;;;;;;;;;5054570;28;20027;-64
2022/04/05 02:35:43;;;;;;;32.28;2.58;;;;;;;;;;5070134;28;20024;-60
2022/04/05 02:38:09;;;;;;;8.60;1.15;;;;;;;;;;5066073;28;20021;-66
2022/04/05 02:40:35;;;;;;;6.03;1.30;;;;;;;;;;5071355;28;20479;-64
2022/04/05 02:43:02;;;;;;;17.30;1.40;;;;;;;;;;5071246;28;20074;-59
2022/04/05 02:45:28;;;;;;;5.05;1.35;;;;;;;;;;5055530;28;20075;-59
2022/04/05 02:47:53;;;;;;;13.27;1.77;;;;;;;;;;5051264;28;20053;-59
2022/04/05 02:50:19;;;;;;;8.32;1.25;;;;;;;;;;5069632;28;20369;-65
2022/04/05 02:52:46;;;;;;;7.22;1.20;;;;;;;;;;5063554;28;20028;-59
2022/04/05 02:55:12;;;;;;;8.00;1.23;;;;;;;;;;5071071;28;20032;-61
2022/04/05 02:57:41;;;;;;;5.93;1.52;;;;;;;;;;5068101;28;20028;-63
2022/04/05 03:00:08;;;;;;;6.82;1.60;;;;;;;;;;5053016;28;20033;-65
2022/04/05 03:02:34;;;;;;;8.82;1.38;;;;;;;;;;5055284;28;20108;-62
2022/04/05 03:05:01;;;;;;;2.72;1.10;;;;;;;;;;5059473;28;20036;-62
2022/04/05 03:07:27;;;;;;;3.95;1.23;;;;;;;;;;5069898;28;20024;-62
2022/04/05 03:09:53;;;;;;;10.10;1.35;;;;;;;;;;5069514;28;20028;-62
2022/04/05 03:12:19;;;;;;;4.82;1.33;;;;;;;;;;5061412;28;20032;-65
2022/04/05 03:14:45;;;;;;;7.18;1.20;;;;;;;;;;5083008;28;20510;-64
2022/04/05 03:17:11;;;;;;;5.90;1.40;;;;;;;;;;5075641;28;20032;-64
2022/04/05 03:19:38;;;;;;;6.72;1.33;;;;;;;;;;5065385;28;20027;-63
2022/04/05 03:22:05;;;;;;;4.13;1.05;;;;;;;;;;5070766;28;20113;-61
2022/04/05 03:24:31;;;;;;;3.53;1.00;;;;;;;;;;5058136;28;20079;-64
2022/04/05 03:26:58;;;;;;;5.18;1.17;;;;;;;;;;5063199;28;20456;-65
2022/04/05 03:29:24;;;;;;;5.65;1.13;;;;;;;;;;5067035;28;20165;-64
2022/04/05 03:31:50;;;;;;;4.63;1.10;;;;;;;;;;5058160;28;20029;-64
2022/04/05 03:34:16;;;;;;;2.25;0.80;;;;;;;;;;5064253;28;20043;-59
2022/04/05 03:36:43;;;;;;;5.65;1.10;;;;;;;;;;5069045;28;20091;-63
2022/04/05 03:39:10;;;;;;;4.35;1.15;;;;;;;;;;5073649;28;20021;-63
2022/04/05 03:41:36;;;;;;;10.18;1.30;;;;;;;;;;5074219;28;20532;-62
2022/04/05 03:44:03;;;;;;;3.22;1.10;;;;;;;;;;5065041;28;20038;-66
2022/04/05 03:46:28;;;;;;;7.68;1.27;;;;;;;;;;5072056;28;20035;-65
2022/04/05 03:48:55;;;;;;;5.63;0.85;;;;;;;;;;5056173;28;20021;-62
2022/04/05 03:51:21;;;;;;;2.75;1.00;;;;;;;;;;5061229;28;20033;-62
2022/04/05 03:53:47;;;;;;;3.45;0.90;;;;;;;;;;5068185;28;20036;-58
2022/04/05 03:56:13;;;;;;;7.15;0.98;;;;;;;;;;5065925;28;20033;-64
2022/04/05 03:58:39;;;;;;;3.65;1.20;;;;;;;;;;5061810;28;20017;-61
2022/04/05 04:01:06;;;;;;;4.03;0.93;;;;;;;;;;5068213;28;20090;-59
2022/04/05 04:03:33;;;;;;;3.88;1.20;;;;;;;;;;5063383;28;20041;-63
2022/04/05 04:05:59;;;;;;;4.53;1.13;;;;;;;;;;5068817;28;20467;-64
2022/04/05 04:08:25;;;;;;;3.42;0.80;;;;;;;;;;5055707;28;20048;-59
2022/04/05 04:10:51;;;;;;;3.70;1.30;;;;;;;;;;5045227;28;20017;-61
2022/04/05 04:13:17;;;;;;;3.80;0.98;;;;;;;;;;5064710;28;20024;-60
2022/04/05 04:15:44;;;;;;;3.30;1.10;;;;;;;;;;5068051;28;20021;-64
2022/04/05 04:18:10;;;;;;;3.35;0.88;;;;;;;;;;5064975;28;20585;-60
2022/04/05 04:20:38;;;;;;;4.30;1.20;;;;;;;;;;5064647;28;20029;-61
2022/04/05 04:23:05;;;;;;;4.28;1.00;;;;;;;;;;5058056;28;20040;-63
2022/04/05 04:25:31;;;;;;;3.72;1.10;;;;;;;;;;5063061;28;20037;-63
2022/04/05 04:27:57;;;;;;;5.57;1.70;;;;;;;;;;5069520;28;20024;-64
2022/04/05 04:30:23;;;;;;;2.65;1.15;;;;;;;;;;5076136;28;20421;-62
2022/04/05 04:32:49;;;;;;;2.20;1.10;;;;;;;;;;5093574;28;20488;-64
2022/04/05 04:35:15;;;;;;;2.15;1.13;;;;;;;;;;5053548;28;20502;-62
2022/04/05 04:37:41;;;;;;;4.20;1.20;;;;;;;;;;5066650;28;20107;-64
2022/04/05 04:40:08;;;;;;;4.72;1.08;;;;;;;;;;5054801;28;20029;-64
2022/04/05 04:42:34;;;;;;;9.23;1.42;;;;;;;;;;5053573;28;20119;-64
2022/04/05 04:45:00;;;;;;;6.40;1.40;;;;;;;;;;5067814;28;20115;-63
2022/04/05 04:47:26;;;;;;;9.68;1.02;;;;;;;;;;5066809;28;20021;-65
2022/04/05 04:49:52;;;;;;;3.45;1.48;;;;;;;;;;5073271;28;20031;-65
2022/04/05 04:52:18;;;;;;;2.95;1.20;;;;;;;;;;5070373;28;20400;-60
2022/04/05 04:54:44;;;;;;;3.65;1.20;;;;;;;;;;5073586;28;20119;-63
2022/04/05 04:57:10;;;;;;;3.20;1.35;;;;;;;;;;5073555;28;20099;-63
2022/04/05 04:59:36;;;;;;;7.35;1.60;;;;;;;;;;5073778;28;20063;-64
2022/04/05 05:02:02;;;;;;;3.25;1.17;;;;;;;;;;5055560;28;20044;-61
2022/04/05 05:04:28;;;;;;;5.28;1.27;;;;;;;;;;5073375;28;20471;-62
2022/04/05 05:06:54;;;;;;;6.75;1.20;;;;;;;;;;5073562;28;20036;-64
2022/04/05 05:09:20;;;;;;;4.05;1.48;;;;;;;;;;5072379;28;20028;-62
2022/04/05 05:11:46;;;;;;;10.13;1.67;;;;;;;;;;5072974;28;20032;-64
2022/04/05 05:14:12;;;;;;;21.63;1.77;;;;;;;;;;5072906;28;20421;-64
2022/04/05 05:16:38;;;;;;;15.45;1.83;;;;;;;;;;5070495;28;20036;-63
2022/04/05 05:19:05;;;;;;;8.38;1.30;;;;;;;;;;5072086;28;20106;-62
2022/04/05 05:21:31;;;;;;;26.35;1.80;;;;;;;;;;5068333;28;20024;-65
2022/04/05 05:23:57;;;;;;;61.72;3.10;;;;;;;;;;5070088;28;20059;-61
2022/04/05 05:26:23;;;;;;;37.13;2.53;;;;;;;;;;5070269;28;20077;-63
2022/04/05 05:28:50;;;;;;;33.05;2.15;;;;;;;;;;5055073;28;20052;-65
2022/04/05 05:31:17;;;;;;;26.42;2.55;;;;;;;;;;5061284;28;20056;-64
2022/04/05 05:33:43;;;;;;;18.15;2.00;;;;;;;;;;5062259;28;20032;-64
2022/04/05 05:36:09;;;;;;;26.58;2.40;;;;;;;;;;5059351;28;20519;-65
2022/04/05 05:38:35;;;;;;;11.85;1.67;;;;;;;;;;5060921;28;20094;-63
2022/04/05 05:41:01;;;;;;;14.35;1.85;;;;;;;;;;5060696;28;20464;-62
2022/04/05 05:43:27;;;;;;;12.80;2.00;;;;;;;;;;5053965;28;20020;-65
2022/04/05 05:45:53;;;;;;;17.02;2.47;;;;;;;;;;5054677;28;20124;-62
2022/04/05 05:48:19;;;;;;;11.40;1.88;;;;;;;;;;5054011;28;20017;-67
2022/04/05 05:50:45;;;;;;;16.17;2.30;;;;;;;;;;5052213;28;20037;-67
2022/04/05 05:53:11;;;;;;;7.53;1.65;;;;;;;;;;5066204;28;20016;-64
2022/04/05 05:55:37;;;;;;;24.83;3.05;;;;;;;;;;5066381;28;20095;-64
2022/04/05 05:58:04;;;;;;;14.13;2.50;;;;;;;;;;5045364;28;20115;-69
2022/04/05 06:00:30;;;;;;;14.45;1.60;;;;;;;;;;5050484;28;20079;-67
2022/04/05 06:03:00;;;;;;;6.95;1.77;;;;;;;;;;5058236;28;20028;-67
2022/04/05 06:05:27;;;;;;;11.73;2.10;;;;;;;;;;5065313;28;20037;-66
2022/04/05 06:07:53;;;;;;;8.45;2.30;;;;;;;;;;5050448;28;20096;-67
2022/04/05 06:10:19;;;;;;;9.90;2.00;;;;;;;;;;5050506;28;20033;-67
2022/04/05 06:12:46;;;;;;;9.13;1.95;;;;;;;;;;5050406;28;20040;-67
2022/04/05 06:15:13;;;;;;;15.77;1.98;;;;;;;;;;5063143;28;20086;-67
2022/04/05 06:17:42;;;;;;;14.20;2.00;;;;;;;;;;5050547;28;20021;-67
2022/04/05 06:20:08;;;;;;;9.60;2.15;;;;;;;;;;5050605;28;20053;-66
2022/04/05 06:22:42;;;;;;;9.68;2.15;;;;;;;;;;5050090;28;20083;-69
2022/04/05 06:25:08;;;;;;;6.60;1.75;;;;;;;;;;5061074;28;20156;-68
2022/04/05 06:27:36;;;;;;;17.90;2.08;;;;;;;;;;5055677;28;20028;-67
2022/04/05 06:30:02;;;;;;;5.22;1.95;;;;;;;;;;5060216;28;20020;-68
2022/04/05 06:32:27;;;;;;;10.15;1.85;;;;;;;;;;5090382;28;20031;-66
2022/04/05 06:34:53;;;;;;;6.35;2.10;;;;;;;;;;5054700;28;20078;-67
2022/04/05 06:37:20;;;;;;;8.48;1.95;;;;;;;;;;5070269;28;20475;-68
2022/04/05 06:39:46;;;;;;;7.43;2.30;;;;;;;;;;5070232;28;20364;-67
2022/04/05 06:42:12;;;;;;;6.15;1.80;;;;;;;;;;5060568;28;20028;-67
2022/04/05 06:44:38;;;;;;;14.30;1.80;;;;;;;;;;5046223;28;20029;-62
2022/04/05 06:47:06;;;;;;;3.70;1.58;;;;;;;;;;5049685;28;20076;-63
2022/04/05 06:49:32;;;;;;;6.50;1.95;;;;;;;;;;5049933;28;20082;-66
2022/04/05 06:51:58;;;;;;;9.75;2.22;;;;;;;;;;5059896;28;20418;-66
2022/04/05 06:54:24;;;;;;;9.80;2.05;;;;;;;;;;5070274;28;20036;-65
2022/04/05 06:56:50;;;;;;;6.45;1.70;;;;;;;;;;5055972;28;20036;-67
2022/04/05 06:59:16;;;;;;;5.95;1.75;;;;;;;;;;5050458;28;20025;-66
2022/04/05 07:01:42;;;;;;;7.70;2.00;;;;;;;;;;5050133;28;20098;-66
2022/04/05 07:04:08;;;;;;;7.32;1.92;;;;;;;;;;5049352;28;20380;-62
2022/04/05 07:06:36;;;;;;;4.93;1.67;;;;;;;;;;5049756;28;20491;-63
2022/04/05 07:09:01;;;;;;;5.15;1.55;;;;;;;;;;5044863;28;20112;-66
2022/04/05 07:11:27;;;;;;;3.97;2.00;;;;;;;;;;5068958;28;20158;-66
2022/04/05 07:13:53;;;;;;;7.95;1.80;;;;;;;;;;5071288;28;20373;-63
2022/04/05 07:16:19;;;;;;;6.35;1.70;;;;;;;;;;5073085;28;20028;-68
2022/04/05 07:18:45;;;;;;;9.10;1.92;;;;;;;;;;5065272;28;20101;-64
2022/04/05 07:21:12;;;;;;;8.25;1.92;;;;;;;;;;5070467;28;20025;-63
2022/04/05 07:23:38;;;;;;;6.75;2.13;;;;;;;;;;5059553;28;20073;-65
2022/04/05 07:26:04;;;;;;;6.35;1.60;;;;;;;;;;5064286;28;20125;-65
2022/04/05 07:28:30;;;;;;;10.77;2.15;;;;;;;;;;5075057;28;20032;-66
2022/04/05 07:30:56;;;;;;;6.03;1.88;;;;;;;;;;5089394;28;20032;-67
2022/04/05 07:33:22;;;;;;;4.55;1.63;;;;;;;;;;5075480;28;20035;-67
2022/04/05 07:35:48;;;;;;;6.30;1.70;;;;;;;;;;5085557;28;20141;-66
2022/04/05 07:38:14;;;;;;;7.90;2.10;;;;;;;;;;5073776;28;20149;-67
2022/04/05 07:40:49;;;;;;;7.10;2.05;;;;;;;;;;5073420;28;20039;-66
2022/04/05 07:43:16;;;;;;;8.55;2.22;;;;;;;;;;5055219;28;20119;-65
2022/04/05 07:45:42;;;;;;;4.45;1.50;;;;;;;;;;5038419;28;20033;-66
2022/04/05 07:48:08;;;;;;;5.65;1.92;;;;;;;;;;5059416;28;20032;-65
2022/04/05 07:50:34;;;;;;;8.85;2.05;;;;;;;;;;5063484;28;20454;-65
2022/04/05 07:53:00;;;;;;;10.27;1.83;;;;;;;;;;5071798;28;20103;-65
2022/04/05 07:55:26;;;;;;;7.35;1.75;;;;;;;;;;5072152;28;20090;-66
2022/04/05 07:57:52;;;;;;;6.97;2.00;;;;;;;;;;5059078;28;20055;-61
2022/04/05 08:00:18;;;;;;;7.25;1.85;;;;;;;;;;5066493;28;20056;-66
2022/04/05 08:02:44;;;;;;;4.53;1.65;;;;;;;;;;5061662;28;20033;-67
2022/04/05 08:05:10;;;;;;;9.35;2.15;;;;;;;;;;5056813;28;20053;-64
2022/04/05 08:07:36;;;;;;;10.15;2.15;;;;;;;;;;5066905;28;20024;-67
2022/04/05 08:10:02;;;;;;;7.45;2.08;;;;;;;;;;5070789;28;20094;-65
2022/04/05 08:12:35;;;;;;;6.15;1.77;;;;;;;;;;5063969;28;20052;-64
2022/04/05 08:15:01;;;;;;;;;;;;;;;;;;5052129;28;20399;-65
2022/04/05 08:17:27;;;;;;;9.82;2.20;;;;;;;;;;5062375;28;20426;-64
2022/04/05 08:19:53;;;;;;;9.93;2.05;;;;;;;;;;5070823;28;20064;-66
2022/04/05 08:22:19;;;;;;;8.68;2.00;;;;;;;;;;5054296;28;20536;-67
2022/04/05 08:24:45;;;;;;;9.45;2.00;;;;;;;;;;5070636;28;20064;-67
2022/04/05 08:27:11;;;;;;;4.30;1.80;;;;;;;;;;5072258;28;20440;-66
2022/04/05 08:29:41;;;;;;;5.55;2.00;;;;;;;;;;5077418;28;20419;-67
2022/04/05 08:32:07;;;;;;;6.65;1.65;;;;;;;;;;5065653;28;20021;-65
2022/04/05 08:34:33;;;;;;;7.65;2.15;;;;;;;;;;5054137;28;20041;-65
2022/04/05 08:36:59;;;;;;;6.70;1.85;;;;;;;;;;5069061;28;20032;-61
2022/04/05 08:39:28;;;;;;;6.78;1.73;;;;;;;;;;5061765;28;20074;-66
2022/04/05 08:41:55;;;;;;;5.22;1.85;;;;;;;;;;5059904;28;20025;-65
2022/04/05 08:44:21;;;;;;;4.45;1.75;;;;;;;;;;5060484;28;20206;-66
2022/04/05 08:46:48;;;;;;;5.75;1.65;;;;;;;;;;5061043;28;20025;-64
2022/04/05 08:49:14;;;;;;;9.95;2.25;;;;;;;;;;5062145;28;20033;-65
2022/04/05 08:51:40;;;;;;;7.18;1.60;;;;;;;;;;5061054;28;20468;-63
2022/04/05 08:54:06;;;;;;;3.97;1.38;;;;;;;;;;5042968;28;20032;-60
2022/04/05 08:56:33;;;;;;;3.83;1.48;;;;;;;;;;5059747;28;20029;-65
2022/04/05 08:58:58;;;;;;;7.50;1.60;;;;;;;;;;5060987;28;20079;-66
2022/04/05 09:01:29;;;;;;;4.70;1.40;;;;;;;;;;5062710;28;20107;-62
2022/04/05 09:03:57;;;;;;;3.90;1.25;;;;;;;;;;5068597;28;20036;-62
2022/04/05 09:06:28;;;;;;;4.38;1.58;;;;;;;;;;5061014;28;20404;-62
2022/04/05 09:09:13;;;;;;;3.97;1.45;;;;;;;;;;5042207;28;20555;-63
2022/04/05 09:11:50;;;;;;;5.10;1.60;;;;;;;;;;5059485;28;20036;-61
2022/04/05 09:14:23;;;;;;;4.22;1.20;;;;;;;;;;5057404;28;20075;-66
2022/04/05 09:17:03;;;;;;;6.15;1.83;;;;;;;;;;5041653;28;20392;-62
2022/04/05 09:19:35;;;;;;;3.22;1.42;;;;;;;;;;5043889;28;20115;-66
2022/04/05 09:22:03;;;;;;;;;;;;;;;;;;5058101;28;20391;-66
2022/04/05 09:24:36;;;;;;;2.50;1.25;;;;;;;;;;5041593;28;19924;-63
2022/04/05 09:27:02;;;;;;;4.22;1.40;;;;;;;;;;5059818;28;20021;-65
2022/04/05 09:29:38;;;;;;;5.00;1.48;;;;;;;;;;5064635;28;20045;-66
2022/04/05 09:32:04;;;;;;;3.33;1.30;;;;;;;;;;5062281;28;20086;-64
2022/04/05 09:34:30;;;;;;;3.60;1.33;;;;;;;;;;5061199;28;20021;-64
2022/04/05 09:36:56;;;;;;;4.53;1.20;;;;;;;;;;5065172;28;20145;-64
2022/04/05 09:39:26;;;;;;;1.92;1.20;;;;;;;;;;5063095;28;20040;-65
2022/04/05 09:42:05;;;;;;;4.05;1.35;;;;;;;;;;5060641;28;20093;-67
2022/04/05 09:44:42;;;;;;;3.63;1.25;;;;;;;;;;5060720;28;20037;-63
2022/04/05 09:47:19;;;;;;;4.65;1.40;;;;;;;;;;5057613;28;20032;-65
2022/04/05 09:49:47;;;;;;;3.17;1.20;;;;;;;;;;5060003;28;20028;-62
2022/04/05 09:52:30;;;;;;;3.42;1.30;;;;;;;;;;5058282;28;20027;-64
2022/04/05 09:54:57;;;;;;;5.03;1.45;;;;;;;;;;5060986;28;20036;-68
2022/04/05 09:57:30;;;;;;;3.13;1.33;;;;;;;;;;5067314;28;20024;-64
2022/04/05 10:00:07;;;;;;;2.38;1.30;;;;;;;;;;5069895;28;20111;-66
2022/04/05 10:02:34;;;;;;;4.28;1.30;;;;;;;;;;5055464;28;20499;-68
2022/04/05 10:05:01;;;;;;;3.88;1.48;;;;;;;;;;5064759;28;20131;-69
2022/04/05 10:07:28;;;;;;;15.00;1.42;;;;;;;;;;5061519;28;20101;-67
2022/04/05 10:09:54;;;;;;;4.20;1.20;;;;;;;;;;5063848;28;20090;-67
2022/04/05 10:12:21;;;;;;;7.72;1.52;;;;;;;;;;5059002;28;20056;-70
2022/04/05 10:14:47;;;;;;;6.82;1.50;;;;;;;;;;5041706;28;20126;-68
2022/04/05 10:17:15;;;;;;;4.13;1.42;;;;;;;;;;5060874;28;20661;-70
2022/04/05 10:19:43;;;;;;;2.88;1.23;;;;;;;;;;5058452;28;20107;-70
2022/04/05 10:22:10;;;;;;;5.10;1.60;;;;;;;;;;5052997;28;20035;-68
2022/04/05 10:24:36;;;;;;;5.00;2.00;;;;;;;;;;5053097;28;20460;-68
2022/04/05 10:27:04;;;;;;;3.42;1.42;;;;;;;;;;5062252;28;20029;-68
2022/04/05 10:29:30;;;;;;;4.53;1.60;;;;;;;;;;5046632;28;20146;-68
2022/04/05 10:32:02;;;;;;;3.08;1.50;;;;;;;;;;5046322;28;20132;-67
2022/04/05 10:34:42;;;;;;;7.13;2.30;;;;;;;;;;5060067;28;20082;-66
2022/04/05 10:37:17;;;;;;;4.35;2.35;;;;;;;;;;5047889;28;20072;-67
2022/04/05 10:39:43;;;;;;;4.70;2.50;;;;;;;;;;5042152;28;20021;-68
2022/04/05 10:42:11;;;;;;;7.57;2.58;;;;;;;;;;5058837;28;20547;-67
2022/04/05 10:44:37;;;;;;;6.50;2.92;;;;;;;;;;5048298;28;20025;-67
2022/04/05 10:47:06;;;;;;;7.00;3.30;;;;;;;;;;5061738;28;20021;-65
2022/04/05 10:49:39;;;;;;;5.97;2.97;;;;;;;;;;5059089;28;20079;-67
2022/04/05 10:52:08;;;;;;;8.15;3.30;;;;;;;;;;5052279;28;20035;-66
2022/04/05 10:54:39;;;;;;;4.03;2.78;;;;;;;;;;5058548;28;20140;-65
2022/04/05 10:57:29;;;;;;;4.43;2.83;;;;;;;;;;5045772;28;20045;-62
2022/04/05 11:00:04;;;;;;;10.77;2.78;;;;;;;;;;5057832;28;20143;-63
2022/04/05 11:02:44;;;;;;;6.75;3.15;;;;;;;;;;5045743;28;20089;-63
2022/04/05 11:05:18;;;;;;;7.35;2.33;;;;;;;;;;5060165;28;20021;-67
2022/04/05 11:07:59;;;;;;;5.85;2.60;;;;;;;;;;5060196;28;20024;-66
2022/04/05 11:10:38;;;;;;;4.57;2.67;;;;;;;;;;5061830;28;20063;-67
2022/04/05 11:13:15;;;;;;;5.15;2.60;;;;;;;;;;5060579;28;20096;-65
2022/04/05 11:15:47;;;;;;;5.00;2.75;;;;;;;;;;5056710;28;20043;-62
2022/04/05 11:18:16;;;;;;;6.00;2.57;;;;;;;;;;5064087;28;20025;-65
2022/04/05 11:20:44;;;;;;;4.70;2.30;;;;;;;;;;5062608;28;20281;-66
2022/04/05 11:23:11;;;;;;;3.55;2.00;;;;;;;;;;5058777;28;20049;-66
2022/04/05 11:25:37;;;;;;;5.15;2.20;;;;;;;;;;5057042;28;20037;-66
2022/04/05 11:28:14;;;;;;;4.68;2.00;;;;;;;;;;5060557;28;20025;-68
2022/04/05 11:31:02;;;;;;;5.22;2.10;;;;;;;;;;5058973;28;20029;-68
2022/04/05 11:33:31;;;;;;;6.70;2.28;;;;;;;;;;5062510;28;20044;-66
2022/04/05 11:35:59;;;;;;;5.38;2.00;;;;;;;;;;5054793;28;20024;-64
2022/04/05 11:38:28;;;;;;;3.38;1.80;;;;;;;;;;5043619;28;20028;-64
2022/04/05 11:40:54;;;;;;;4.10;1.90;;;;;;;;;;5057766;28;20036;-68
2022/04/05 11:43:30;;;;;;;5.85;2.13;;;;;;;;;;5062789;28;20039;-68
2022/04/05 11:45:57;;;;;;;4.72;1.75;;;;;;;;;;5054426;28;20041;-67
2022/04/05 11:48:28;;;;;;;4.95;2.00;;;;;;;;;;5065693;28;20037;-69
2022/04/05 11:50:55;;;;;;;6.28;2.03;;;;;;;;;;5063923;28;20494;-65
2022/04/05 11:53:22;;;;;;;5.50;1.60;;;;;;;;;;5063042;28;20043;-65
2022/04/05 11:56:08;;;;;;;8.60;2.10;;;;;;;;;;5062189;28;20075;-65
2022/04/05 11:58:35;;;;;;;7.13;1.60;;;;;;;;;;5064981;28;20029;-68
2022/04/05 12:01:05;;;;;;;4.07;1.88;;;;;;;;;;5072307;28;20079;-69
2022/04/05 12:03:47;;;;;;;6.10;1.92;;;;;;;;;;5063763;28;20021;-68
2022/04/05 12:06:14;;;;;;;6.97;1.80;;;;;;;;;;5067738;28;20028;-68
2022/04/05 12:08:41;;;;;;;4.05;1.80;;;;;;;;;;5060642;28;20029;-68
2022/04/05 12:11:07;;;;;;;5.22;1.65;;;;;;;;;;5055886;28;20047;-68
2022/04/05 12:13:36;;;;;;;5.47;2.08;;;;;;;;;;5067452;28;20031;-70
2022/04/05 12:16:03;;;;;;;3.17;1.25;;;;;;;;;;5062680;28;20029;-70
2022/04/05 12:18:30;;;;;;;4.60;1.48;;;;;;;;;;5059243;28;20456;-69
2022/04/05 12:21:14;;;;;;;3.05;1.40;;;;;;;;;;5053705;28;20116;-68
2022/04/05 12:23:43;;;;;;;4.10;1.70;;;;;;;;;;5064315;28;20496;-68
2022/04/05 12:26:09;;;;;;;4.35;1.80;;;;;;;;;;5072313;28;20051;-68
2022/04/05 12:28:45;;;;;;;3.33;1.48;;;;;;;;;;5073080;28;20024;-68
2022/04/05 12:31:16;;;;;;;4.10;1.60;;;;;;;;;;5081535;28;20428;-68
2022/04/05 12:33:42;;;;;;;4.45;1.60;;;;;;;;;;5068981;28;20086;-69
2022/04/05 12:36:09;;;;;;;5.25;1.80;;;;;;;;;;5073458;28;20025;-68
2022/04/05 12:38:36;;;;;;;4.60;1.73;;;;;;;;;;5056979;28;20099;-66
2022/04/05 12:41:03;;;;;;;5.53;1.50;;;;;;;;;;5070388;28;20063;-69
2022/04/05 12:43:29;;;;;;;9.10;1.63;;;;;;;;;;5062149;28;20060;-68
2022/04/05 12:45:56;;;;;;;2.85;1.27;;;;;;;;;;5055370;28;20112;-67
2022/04/05 12:48:22;;;;;;;4.75;1.52;;;;;;;;;;5065473;28;20017;-69
2022/04/05 12:50:52;;;;;;;5.93;1.13;;;;;;;;;;5069094;28;20044;-69
2022/04/05 12:53:25;;;;;;;4.15;1.60;;;;;;;;;;5062297;28;20025;-66
2022/04/05 12:55:57;;;;;;;5.03;1.48;;;;;;;;;;5061128;28;20031;-67
2022/04/05 12:58:38;;;;;;;4.22;1.42;;;;;;;;;;5073029;28;20040;-66
2022/04/05 13:01:25;;;;;;;4.47;1.38;;;;;;;;;;5067214;28;20021;-68
2022/04/05 13:03:58;;;;;;;4.63;1.48;;;;;;;;;;5073478;28;20024;-69
2022/04/05 13:06:25;;;;;;;3.65;1.50;;;;;;;;;;5072292;28;20028;-69
2022/04/05 13:08:53;;;;;;;3.92;1.30;;;;;;;;;;5070717;28;20031;-67
2022/04/05 13:11:33;;;;;;;4.13;1.40;;;;;;;;;;5072758;28;20079;-68
2022/04/05 13:14:09;;;;;;;3.88;1.42;;;;;;;;;;5064125;28;20017;-69
2022/04/05 13:16:36;;;;;;;5.63;1.65;;;;;;;;;;5071404;28;20043;-65
2022/04/05 13:19:07;;;;;;;4.68;1.45;;;;;;;;;;5056050;28;20037;-70
2022/04/05 13:21:40;;;;;;;4.60;1.30;;;;;;;;;;5064615;28;20021;-69
2022/04/05 13:24:09;;;;;;;4.53;1.30;;;;;;;;;;5059237;28;20041;-67
2022/04/05 13:26:38;;;;;;;4.68;1.45;;;;;;;;;;5064670;28;20025;-67
2022/04/05 13:29:07;;;;;;;5.80;1.67;;;;;;;;;;5070477;28;20029;-69
2022/04/05 13:31:34;;;;;;;2.65;1.35;;;;;;;;;;5060972;28;20145;-66
2022/04/05 13:34:00;;;;;;;3.58;1.30;;;;;;;;;;5058952;28;20025;-68
2022/04/05 13:36:26;;;;;;;3.13;1.10;;;;;;;;;;5060072;28;20487;-65
2022/04/05 13:38:52;;;;;;;3.67;1.38;;;;;;;;;;5067982;28;20021;-66
2022/04/05 13:41:18;;;;;;;5.68;1.40;;;;;;;;;;5064730;28;20379;-68
2022/04/05 13:43:44;;;;;;;4.32;1.35;;;;;;;;;;5063562;28;20029;-66
2022/04/05 13:46:10;;;;;;;3.38;1.30;;;;;;;;;;5061072;28;20044;-67
2022/04/05 13:48:36;;;;;;;2.10;1.08;;;;;;;;;;5060716;28;20027;-68
2022/04/05 13:51:03;;;;;;;4.70;1.38;;;;;;;;;;5061424;28;20067;-67
2022/04/05 13:53:30;;;;;;;5.20;1.50;;;;;;;;;;5063965;28;20099;-67
2022/04/05 13:55:58;;;;;;;6.90;1.40;;;;;;;;;;5061662;28;20106;-68
2022/04/05 13:58:24;;;;;;;4.43;1.27;;;;;;;;;;5062771;28;20025;-68
2022/04/05 14:00:50;;;;;;;6.18;1.48;;;;;;;;;;5059528;28;20024;-69
2022/04/05 14:03:19;;;;;;;2.67;1.08;;;;;;;;;;5064255;28;20023;-69
2022/04/05 14:05:46;;;;;;;5.68;1.50;;;;;;;;;;5063318;28;20032;-70
2022/04/05 14:08:12;;;;;;;3.03;1.38;;;;;;;;;;5062647;28;20372;-65
2022/04/05 14:10:38;;;;;;;4.32;1.40;;;;;;;;;;5059049;28;20028;-65
2022/04/05 14:13:04;;;;;;;3.10;1.27;;;;;;;;;;5051239;28;20036;-66
2022/04/05 14:15:30;;;;;;;3.80;1.58;;;;;;;;;;5063670;28;20067;-69
2022/04/05 14:17:56;;;;;;;3.35;1.10;;;;;;;;;;5057241;28;20539;-68
2022/04/05 14:20:22;;;;;;;3.63;1.45;;;;;;;;;;5065319;28;20025;-69
2022/04/05 14:22:48;;;;;;;3.33;1.25;;;;;;;;;;5052812;28;20174;-68
2022/04/05 14:25:14;;;;;;;3.42;1.20;;;;;;;;;;5056425;28;20057;-67
2022/04/05 14:27:40;;;;;;;3.58;1.35;;;;;;;;;;5052719;28;20032;-67
2022/04/05 14:30:07;;;;;;;5.35;1.40;;;;;;;;;;5059460;28;20082;-66
2022/04/05 14:32:33;;;;;;;3.42;1.35;;;;;;;;;;5059028;28;20029;-67
2022/04/05 14:35:01;;;;;;;3.45;1.10;;;;;;;;;;5061234;28;20036;-68
2022/04/05 14:37:27;;;;;;;4.38;1.13;;;;;;;;;;5059779;28;20031;-67
2022/04/05 14:39:53;;;;;;;4.78;1.33;;;;;;;;;;5068909;28;20124;-62
2022/04/05 14:42:19;;;;;;;4.75;1.50;;;;;;;;;;5060447;28;20096;-64
2022/04/05 14:44:45;;;;;;;7.13;1.50;;;;;;;;;;5043518;28;20025;-67